Terminal Aerodrome Forecast
Issued by NWS

Home | Current Version | Previous Version | Graphics & Text | Print | Product List | Glossary On
Versions: 1 2 3 4 5 6 7 8 9 10 11 12 13
000
FTUS43 KGRB 182327
TAFMTW
TAF
KMTW 182327Z 1900/1924 24010KT P6SM SKC
     FM191700 21009G15KT P6SM BKN200
     FM192100 20010G16KT P6SM BKN200 WS018/24045KT=

USA.gov is the U.S. government's official web portal to all federal, state and local government web resources and services.